sensor_id;sensor_type;location;lat;lon;timestamp;temperature;humidity
40289;DHT22;28991;52.028;5.526;2023-12-20T00:01:46;19.70;56.40
40289;DHT22;28991;52.028;5.526;2023-12-20T00:04:12;17.90;55.50
40289;DHT22;28991;52.028;5.526;2023-12-20T00:06:38;18.00;55.50
40289;DHT22;28991;52.028;5.526;2023-12-20T00:09:03;18.10;55.60
40289;DHT22;28991;52.028;5.526;2023-12-20T00:11:29;18.30;55.70
40289;DHT22;28991;52.028;5.526;2023-12-20T00:13:54;18.30;55.70
40289;DHT22;28991;52.028;5.526;2023-12-20T00:16:20;18.40;55.70
40289;DHT22;28991;52.028;5.526;2023-12-20T00:18:45;17.90;55.40
40289;DHT22;28991;52.028;5.526;2023-12-20T00:21:11;18.00;55.50
40289;DHT22;28991;52.028;5.526;2023-12-20T00:23:36;17.90;55.50
40289;DHT22;28991;52.028;5.526;2023-12-20T00:26:02;18.00;55.50
40289;DHT22;28991;52.028;5.526;2023-12-20T00:28:28;18.00;55.50
40289;DHT22;28991;52.028;5.526;2023-12-20T00:30:53;18.00;55.50
40289;DHT22;28991;52.028;5.526;2023-12-20T00:33:19;18.10;55.60
40289;DHT22;28991;52.028;5.526;2023-12-20T00:35:44;18.00;55.50
40289;DHT22;28991;52.028;5.526;2023-12-20T00:38:10;18.00;55.50
40289;DHT22;28991;52.028;5.526;2023-12-20T00:40:36;18.00;55.50
40289;DHT22;28991;52.028;5.526;2023-12-20T00:43:02;18.00;55.50
40289;DHT22;28991;52.028;5.526;2023-12-20T00:45:28;18.00;55.50
40289;DHT22;28991;52.028;5.526;2023-12-20T00:47:53;18.00;55.50
40289;DHT22;28991;52.028;5.526;2023-12-20T00:50:19;18.00;55.50
40289;DHT22;28991;52.028;5.526;2023-12-20T00:52:46;18.10;55.60
40289;DHT22;28991;52.028;5.526;2023-12-20T00:55:11;18.00;55.50
40289;DHT22;28991;52.028;5.526;2023-12-20T00:57:37;17.90;55.10
40289;DHT22;28991;52.028;5.526;2023-12-20T01:00:03;17.40;55.20
40289;DHT22;28991;52.028;5.526;2023-12-20T01:02:28;18.00;55.50
40289;DHT22;28991;52.028;5.526;2023-12-20T01:04:54;18.10;55.60
40289;DHT22;28991;52.028;5.526;2023-12-20T01:07:20;17.90;55.40
40289;DHT22;28991;52.028;5.526;2023-12-20T01:09:45;17.90;55.50
40289;DHT22;28991;52.028;5.526;2023-12-20T01:12:11;18.50;55.80
40289;DHT22;28991;52.028;5.526;2023-12-20T01:14:36;18.00;55.50
40289;DHT22;28991;52.028;5.526;2023-12-20T01:17:02;17.90;55.50
40289;DHT22;28991;52.028;5.526;2023-12-20T01:19:28;18.00;55.50
40289;DHT22;28991;52.028;5.526;2023-12-20T01:21:54;17.90;55.50
40289;DHT22;28991;52.028;5.526;2023-12-20T01:24:20;18.00;55.50
40289;DHT22;28991;52.028;5.526;2023-12-20T01:26:46;17.90;55.40
40289;DHT22;28991;52.028;5.526;2023-12-20T01:29:11;18.00;55.50
40289;DHT22;28991;52.028;5.526;2023-12-20T01:31:38;19.30;56.20
40289;DHT22;28991;52.028;5.526;2023-12-20T01:34:03;17.90;55.50
40289;DHT22;28991;52.028;5.526;2023-12-20T01:36:29;18.40;55.70
40289;DHT22;28991;52.028;5.526;2023-12-20T01:38:54;17.90;55.50
40289;DHT22;28991;52.028;5.526;2023-12-20T01:41:20;18.40;55.70
40289;DHT22;28991;52.028;5.526;2023-12-20T01:43:46;18.70;55.90
40289;DHT22;28991;52.028;5.526;2023-12-20T01:46:12;18.00;55.50
40289;DHT22;28991;52.028;5.526;2023-12-20T01:48:37;17.90;55.40
40289;DHT22;28991;52.028;5.526;2023-12-20T01:51:04;17.90;56.00
40289;DHT22;28991;52.028;5.526;2023-12-20T01:53:30;17.80;55.40
40289;DHT22;28991;52.028;5.526;2023-12-20T01:55:58;17.90;55.40
40289;DHT22;28991;52.028;5.526;2023-12-20T01:58:25;17.90;55.40
40289;DHT22;28991;52.028;5.526;2023-12-20T02:00:51;17.90;55.40
40289;DHT22;28991;52.028;5.526;2023-12-20T02:03:17;17.90;55.40
40289;DHT22;28991;52.028;5.526;2023-12-20T02:05:44;18.00;55.50
40289;DHT22;28991;52.028;5.526;2023-12-20T02:08:10;17.70;55.40
40289;DHT22;28991;52.028;5.526;2023-12-20T02:10:36;18.30;55.70
40289;DHT22;28991;52.028;5.526;2023-12-20T02:13:03;17.90;55.50
40289;DHT22;28991;52.028;5.526;2023-12-20T02:15:29;17.90;55.50
40289;DHT22;28991;52.028;5.526;2023-12-20T02:17:55;17.90;55.50
40289;DHT22;28991;52.028;5.526;2023-12-20T02:20:21;19.00;56.10
40289;DHT22;28991;52.028;5.526;2023-12-20T02:22:46;17.90;55.50
40289;DHT22;28991;52.028;5.526;2023-12-20T02:25:12;17.90;55.50
40289;DHT22;28991;52.028;5.526;2023-12-20T02:27:38;17.90;55.50
40289;DHT22;28991;52.028;5.526;2023-12-20T02:30:05;17.90;55.50
40289;DHT22;28991;52.028;5.526;2023-12-20T02:32:31;17.90;55.50
40289;DHT22;28991;52.028;5.526;2023-12-20T02:34:57;18.70;55.90
40289;DHT22;28991;52.028;5.526;2023-12-20T02:37:23;17.60;55.30
40289;DHT22;28991;52.028;5.526;2023-12-20T02:39:48;18.90;56.00
40289;DHT22;28991;52.028;5.526;2023-12-20T02:42:14;17.80;55.40
40289;DHT22;28991;52.028;5.526;2023-12-20T02:44:39;17.90;55.40
40289;DHT22;28991;52.028;5.526;2023-12-20T02:47:05;17.90;55.50
40289;DHT22;28991;52.028;5.526;2023-12-20T02:49:30;17.90;55.40
40289;DHT22;28991;52.028;5.526;2023-12-20T02:51:56;17.90;55.40
40289;DHT22;28991;52.028;5.526;2023-12-20T02:54:21;18.30;55.70
40289;DHT22;28991;52.028;5.526;2023-12-20T02:56:47;17.80;55.30
40289;DHT22;28991;52.028;5.526;2023-12-20T02:59:13;17.90;55.40
40289;DHT22;28991;52.028;5.526;2023-12-20T03:01:43;18.60;55.80
40289;DHT22;28991;52.028;5.526;2023-12-20T03:04:09;17.90;55.40
40289;DHT22;28991;52.028;5.526;2023-12-20T03:06:34;17.90;55.40
40289;DHT22;28991;52.028;5.526;2023-12-20T03:09:00;17.90;55.40
40289;DHT22;28991;52.028;5.526;2023-12-20T03:11:28;17.80;55.30
40289;DHT22;28991;52.028;5.526;2023-12-20T03:13:57;17.80;55.30
40289;DHT22;28991;52.028;5.526;2023-12-20T03:16:23;17.80;55.30
40289;DHT22;28991;52.028;5.526;2023-12-20T03:18:49;18.80;55.90
40289;DHT22;28991;52.028;5.526;2023-12-20T03:21:15;17.80;55.30
40289;DHT22;28991;52.028;5.526;2023-12-20T03:23:41;17.80;55.30
40289;DHT22;28991;52.028;5.526;2023-12-20T03:26:07;17.80;55.30
40289;DHT22;28991;52.028;5.526;2023-12-20T03:28:33;17.90;55.30
40289;DHT22;28991;52.028;5.526;2023-12-20T03:30:59;17.80;55.30
40289;DHT22;28991;52.028;5.526;2023-12-20T03:33:24;18.80;55.90
40289;DHT22;28991;52.028;5.526;2023-12-20T03:35:50;18.20;55.50
40289;DHT22;28991;52.028;5.526;2023-12-20T03:38:16;17.80;55.30
40289;DHT22;28991;52.028;5.526;2023-12-20T03:40:41;18.30;55.60
40289;DHT22;28991;52.028;5.526;2023-12-20T03:43:07;17.80;55.30
40289;DHT22;28991;52.028;5.526;2023-12-20T03:45:33;17.70;55.20
40289;DHT22;28991;52.028;5.526;2023-12-20T03:47:58;17.70;55.20
40289;DHT22;28991;52.028;5.526;2023-12-20T03:50:24;18.10;55.40
40289;DHT22;28991;52.028;5.526;2023-12-20T03:52:50;17.80;55.30
40289;DHT22;28991;52.028;5.526;2023-12-20T03:55:15;17.70;55.20
40289;DHT22;28991;52.028;5.526;2023-12-20T03:57:41;18.40;55.60
40289;DHT22;28991;52.028;5.526;2023-12-20T04:00:10;17.70;55.20
40289;DHT22;28991;52.028;5.526;2023-12-20T04:02:40;17.80;55.30
40289;DHT22;28991;52.028;5.526;2023-12-20T04:05:06;17.80;55.30
40289;DHT22;28991;52.028;5.526;2023-12-20T04:07:32;17.70;55.20
40289;DHT22;28991;52.028;5.526;2023-12-20T04:09:58;17.90;55.30
40289;DHT22;28991;52.028;5.526;2023-12-20T04:12:23;17.80;55.20
40289;DHT22;28991;52.028;5.526;2023-12-20T04:14:49;18.70;55.80
40289;DHT22;28991;52.028;5.526;2023-12-20T04:17:17;17.80;55.20
40289;DHT22;28991;52.028;5.526;2023-12-20T04:19:43;17.90;55.20
40289;DHT22;28991;52.028;5.526;2023-12-20T04:22:09;17.90;55.20
40289;DHT22;28991;52.028;5.526;2023-12-20T04:24:34;17.80;55.20
40289;DHT22;28991;52.028;5.526;2023-12-20T04:27:00;18.00;55.30
40289;DHT22;28991;52.028;5.526;2023-12-20T04:29:26;17.70;55.20
40289;DHT22;28991;52.028;5.526;2023-12-20T04:31:52;17.90;55.30
40289;DHT22;28991;52.028;5.526;2023-12-20T04:34:18;17.80;55.20
40289;DHT22;28991;52.028;5.526;2023-12-20T04:36:43;17.90;55.20
40289;DHT22;28991;52.028;5.526;2023-12-20T04:39:09;17.70;55.10
40289;DHT22;28991;52.028;5.526;2023-12-20T04:41:35;18.00;55.30
40289;DHT22;28991;52.028;5.526;2023-12-20T04:44:01;17.80;55.20
40289;DHT22;28991;52.028;5.526;2023-12-20T04:46:26;17.80;55.70
40289;DHT22;28991;52.028;5.526;2023-12-20T04:48:52;17.70;55.10
40289;DHT22;28991;52.028;5.526;2023-12-20T04:51:17;17.80;55.20
40289;DHT22;28991;52.028;5.526;2023-12-20T04:53:43;17.80;55.20
40289;DHT22;28991;52.028;5.526;2023-12-20T04:56:09;17.70;55.10
40289;DHT22;28991;52.028;5.526;2023-12-20T04:58:34;17.80;55.20
40289;DHT22;28991;52.028;5.526;2023-12-20T05:01:00;17.80;55.10
40289;DHT22;28991;52.028;5.526;2023-12-20T05:03:26;17.80;55.20
40289;DHT22;28991;52.028;5.526;2023-12-20T05:05:51;17.20;54.80
40289;DHT22;28991;52.028;5.526;2023-12-20T05:08:17;17.70;55.10
40289;DHT22;28991;52.028;5.526;2023-12-20T05:10:42;17.70;55.10
40289;DHT22;28991;52.028;5.526;2023-12-20T05:13:08;18.40;55.40
40289;DHT22;28991;52.028;5.526;2023-12-20T05:15:34;17.70;55.10
40289;DHT22;28991;52.028;5.526;2023-12-20T05:17:59;17.80;55.10
40289;DHT22;28991;52.028;5.526;2023-12-20T05:20:25;18.80;55.60
40289;DHT22;28991;52.028;5.526;2023-12-20T05:22:50;17.70;55.10
40289;DHT22;28991;52.028;5.526;2023-12-20T05:25:16;17.70;55.00
40289;DHT22;28991;52.028;5.526;2023-12-20T05:27:42;17.80;55.10
40289;DHT22;28991;52.028;5.526;2023-12-20T05:30:07;18.30;55.30
40289;DHT22;28991;52.028;5.526;2023-12-20T05:32:33;17.70;55.00
40289;DHT22;28991;52.028;5.526;2023-12-20T05:34:59;17.90;55.20
40289;DHT22;28991;52.028;5.526;2023-12-20T05:37:24;17.80;55.10
40289;DHT22;28991;52.028;5.526;2023-12-20T05:39:50;17.70;55.10
40289;DHT22;28991;52.028;5.526;2023-12-20T05:42:15;18.80;55.60
40289;DHT22;28991;52.028;5.526;2023-12-20T05:44:41;18.00;55.20
40289;DHT22;28991;52.028;5.526;2023-12-20T05:47:06;18.10;55.30
40289;DHT22;28991;52.028;5.526;2023-12-20T05:49:32;17.70;55.10
40289;DHT22;28991;52.028;5.526;2023-12-20T05:51:57;17.90;55.20
40289;DHT22;28991;52.028;5.526;2023-12-20T05:54:23;17.50;55.00
40289;DHT22;28991;52.028;5.526;2023-12-20T05:56:48;17.80;55.10
40289;DHT22;28991;52.028;5.526;2023-12-20T05:59:14;17.70;55.00
40289;DHT22;28991;52.028;5.526;2023-12-20T06:01:40;17.70;55.00
40289;DHT22;28991;52.028;5.526;2023-12-20T06:04:05;17.70;55.10
40289;DHT22;28991;52.028;5.526;2023-12-20T06:06:31;17.70;55.30
40289;DHT22;28991;52.028;5.526;2023-12-20T06:08:56;17.90;55.10
40289;DHT22;28991;52.028;5.526;2023-12-20T06:11:22;17.80;54.80
40289;DHT22;28991;52.028;5.526;2023-12-20T06:13:48;18.40;53.70
40289;DHT22;28991;52.028;5.526;2023-12-20T06:16:14;17.80;53.90
40289;DHT22;28991;52.028;5.526;2023-12-20T06:18:40;17.80;53.30
40289;DHT22;28991;52.028;5.526;2023-12-20T06:21:06;17.70;53.00
40289;DHT22;28991;52.028;5.526;2023-12-20T06:23:33;17.80;52.70
40289;DHT22;28991;52.028;5.526;2023-12-20T06:25:58;17.70;51.90
40289;DHT22;28991;52.028;5.526;2023-12-20T06:28:24;17.90;52.00
40289;DHT22;28991;52.028;5.526;2023-12-20T06:30:50;17.80;51.80
40289;DHT22;28991;52.028;5.526;2023-12-20T06:33:17;17.70;52.20
40289;DHT22;28991;52.028;5.526;2023-12-20T06:35:44;18.30;51.90
40289;DHT22;28991;52.028;5.526;2023-12-20T06:38:09;18.20;51.00
40289;DHT22;28991;52.028;5.526;2023-12-20T06:40:35;17.80;51.30
40289;DHT22;28991;52.028;5.526;2023-12-20T06:43:00;17.90;50.80
40289;DHT22;28991;52.028;5.526;2023-12-20T06:45:26;17.90;51.50
40289;DHT22;28991;52.028;5.526;2023-12-20T06:47:51;18.00;51.60
40289;DHT22;28991;52.028;5.526;2023-12-20T06:50:17;17.90;50.70
40289;DHT22;28991;52.028;5.526;2023-12-20T06:52:42;17.90;50.40
40289;DHT22;28991;52.028;5.526;2023-12-20T06:55:08;17.90;50.10
40289;DHT22;28991;52.028;5.526;2023-12-20T06:57:34;18.00;50.00
40289;DHT22;28991;52.028;5.526;2023-12-20T07:00:02;17.90;49.90
40289;DHT22;28991;52.028;5.526;2023-12-20T07:02:27;18.00;49.80
40289;DHT22;28991;52.028;5.526;2023-12-20T07:07:21;17.90;49.60
40289;DHT22;28991;52.028;5.526;2023-12-20T07:09:48;18.00;50.00
40289;DHT22;28991;52.028;5.526;2023-12-20T07:12:14;18.00;49.60
40289;DHT22;28991;52.028;5.526;2023-12-20T07:14:40;18.00;50.00
40289;DHT22;28991;52.028;5.526;2023-12-20T07:17:06;17.80;49.30
40289;DHT22;28991;52.028;5.526;2023-12-20T07:19:37;18.10;49.80
40289;DHT22;28991;52.028;5.526;2023-12-20T07:22:03;18.00;49.60
40289;DHT22;28991;52.028;5.526;2023-12-20T07:24:29;18.00;48.90
40289;DHT22;28991;52.028;5.526;2023-12-20T07:26:54;18.00;49.30
40289;DHT22;28991;52.028;5.526;2023-12-20T07:29:20;17.90;48.70
40289;DHT22;28991;52.028;5.526;2023-12-20T07:31:46;18.10;49.00
40289;DHT22;28991;52.028;5.526;2023-12-20T07:34:11;18.20;49.20
40289;DHT22;28991;52.028;5.526;2023-12-20T07:36:37;18.10;49.60
40289;DHT22;28991;52.028;5.526;2023-12-20T07:39:02;18.20;49.10
40289;DHT22;28991;52.028;5.526;2023-12-20T07:41:28;18.10;48.80
40289;DHT22;28991;52.028;5.526;2023-12-20T07:43:54;18.10;49.20
40289;DHT22;28991;52.028;5.526;2023-12-20T07:46:21;18.10;48.40
40289;DHT22;28991;52.028;5.526;2023-12-20T07:48:48;18.30;48.90
40289;DHT22;28991;52.028;5.526;2023-12-20T07:51:14;18.10;48.60
40289;DHT22;28991;52.028;5.526;2023-12-20T07:53:39;18.10;48.30
40289;DHT22;28991;52.028;5.526;2023-12-20T07:56:25;18.10;49.20
40289;DHT22;28991;52.028;5.526;2023-12-20T07:58:51;18.00;48.20
40289;DHT22;28991;52.028;5.526;2023-12-20T08:01:17;18.10;48.90
40289;DHT22;28991;52.028;5.526;2023-12-20T08:03:43;18.20;49.00
40289;DHT22;28991;52.028;5.526;2023-12-20T08:06:09;18.00;48.40
40289;DHT22;28991;52.028;5.526;2023-12-20T08:08:34;17.90;49.10
40289;DHT22;28991;52.028;5.526;2023-12-20T08:11:00;18.10;49.20
40289;DHT22;28991;52.028;5.526;2023-12-20T08:13:26;18.00;49.30
40289;DHT22;28991;52.028;5.526;2023-12-20T08:15:53;17.80;48.90
40289;DHT22;28991;52.028;5.526;2023-12-20T08:18:18;18.00;49.00
40289;DHT22;28991;52.028;5.526;2023-12-20T08:20:44;18.50;49.30
40289;DHT22;28991;52.028;5.526;2023-12-20T08:23:09;18.00;48.90
40289;DHT22;28991;52.028;5.526;2023-12-20T08:25:35;17.90;48.50
40289;DHT22;28991;52.028;5.526;2023-12-20T08:28:02;18.00;48.80
40289;DHT22;28991;52.028;5.526;2023-12-20T08:30:28;18.00;48.60
40289;DHT22;28991;52.028;5.526;2023-12-20T08:32:55;18.00;48.30
40289;DHT22;28991;52.028;5.526;2023-12-20T08:35:20;17.90;48.20
40289;DHT22;28991;52.028;5.526;2023-12-20T08:37:46;18.10;49.00
40289;DHT22;28991;52.028;5.526;2023-12-20T08:40:11;18.00;48.50
40289;DHT22;28991;52.028;5.526;2023-12-20T08:42:37;18.00;48.40
40289;DHT22;28991;52.028;5.526;2023-12-20T08:45:03;18.00;49.10
40289;DHT22;28991;52.028;5.526;2023-12-20T08:47:30;18.00;48.80
40289;DHT22;28991;52.028;5.526;2023-12-20T08:49:55;18.00;48.70
40289;DHT22;28991;52.028;5.526;2023-12-20T08:52:24;18.00;49.00
40289;DHT22;28991;52.028;5.526;2023-12-20T08:54:52;18.00;48.60
40289;DHT22;28991;52.028;5.526;2023-12-20T08:57:20;18.00;49.20
40289;DHT22;28991;52.028;5.526;2023-12-20T08:59:47;17.80;48.80
40289;DHT22;28991;52.028;5.526;2023-12-20T09:02:13;18.00;49.30
40289;DHT22;28991;52.028;5.526;2023-12-20T09:04:39;18.00;49.10
40289;DHT22;28991;52.028;5.526;2023-12-20T09:07:04;18.00;49.10
40289;DHT22;28991;52.028;5.526;2023-12-20T09:09:30;18.80;50.00
40289;DHT22;28991;52.028;5.526;2023-12-20T09:11:57;18.40;49.70
40289;DHT22;28991;52.028;5.526;2023-12-20T09:14:23;18.00;48.70
40289;DHT22;28991;52.028;5.526;2023-12-20T09:16:48;17.60;48.50
40289;DHT22;28991;52.028;5.526;2023-12-20T09:19:17;18.10;49.20
40289;DHT22;28991;52.028;5.526;2023-12-20T09:21:43;17.90;48.60
40289;DHT22;28991;52.028;5.526;2023-12-20T09:24:09;18.00;48.80
40289;DHT22;28991;52.028;5.526;2023-12-20T09:26:35;18.60;49.60
40289;DHT22;28991;52.028;5.526;2023-12-20T09:29:00;18.00;49.40
40289;DHT22;28991;52.028;5.526;2023-12-20T09:31:26;18.10;49.70
40289;DHT22;28991;52.028;5.526;2023-12-20T09:36:18;18.00;49.20
40289;DHT22;28991;52.028;5.526;2023-12-20T09:38:44;18.10;49.50
40289;DHT22;28991;52.028;5.526;2023-12-20T09:41:09;18.10;49.70
40289;DHT22;28991;52.028;5.526;2023-12-20T09:43:38;18.10;49.70
40289;DHT22;28991;52.028;5.526;2023-12-20T09:46:05;18.00;49.60
40289;DHT22;28991;52.028;5.526;2023-12-20T09:48:33;18.10;50.10
40289;DHT22;28991;52.028;5.526;2023-12-20T09:50:59;18.90;50.60
40289;DHT22;28991;52.028;5.526;2023-12-20T09:53:25;18.40;50.30
40289;DHT22;28991;52.028;5.526;2023-12-20T09:55:58;18.10;50.10
40289;DHT22;28991;52.028;5.526;2023-12-20T09:58:25;18.10;49.60
40289;DHT22;28991;52.028;5.526;2023-12-20T10:00:51;18.00;49.50
40289;DHT22;28991;52.028;5.526;2023-12-20T10:03:24;18.40;50.30
40289;DHT22;28991;52.028;5.526;2023-12-20T10:05:54;18.40;50.30
40289;DHT22;28991;52.028;5.526;2023-12-20T10:08:22;18.10;50.20
40289;DHT22;28991;52.028;5.526;2023-12-20T10:10:48;18.10;49.80
40289;DHT22;28991;52.028;5.526;2023-12-20T10:13:15;18.10;49.80
40289;DHT22;28991;52.028;5.526;2023-12-20T10:15:41;17.40;49.90
40289;DHT22;28991;52.028;5.526;2023-12-20T10:18:06;18.10;50.80
40289;DHT22;28991;52.028;5.526;2023-12-20T10:20:32;18.60;50.10
40289;DHT22;28991;52.028;5.526;2023-12-20T10:23:00;18.30;50.40
40289;DHT22;28991;52.028;5.526;2023-12-20T10:25:25;18.10;49.80
40289;DHT22;28991;52.028;5.526;2023-12-20T10:28:12;18.10;49.70
40289;DHT22;28991;52.028;5.526;2023-12-20T10:30:38;18.20;49.90
40289;DHT22;28991;52.028;5.526;2023-12-20T10:33:06;18.10;49.90
40289;DHT22;28991;52.028;5.526;2023-12-20T10:35:32;18.20;50.50
40289;DHT22;28991;52.028;5.526;2023-12-20T10:37:59;18.50;50.20
40289;DHT22;28991;52.028;5.526;2023-12-20T10:40:29;18.20;49.90
40289;DHT22;28991;52.028;5.526;2023-12-20T10:42:56;18.10;49.90
40289;DHT22;28991;52.028;5.526;2023-12-20T10:45:22;18.20;49.90
40289;DHT22;28991;52.028;5.526;2023-12-20T10:47:50;18.00;49.90
40289;DHT22;28991;52.028;5.526;2023-12-20T10:50:15;18.20;50.00
40289;DHT22;28991;52.028;5.526;2023-12-20T10:52:42;18.10;50.50
40289;DHT22;28991;52.028;5.526;2023-12-20T10:55:08;18.20;50.60
40289;DHT22;28991;52.028;5.526;2023-12-20T10:57:35;18.10;50.70
40289;DHT22;28991;52.028;5.526;2023-12-20T11:00:02;18.30;50.30
40289;DHT22;28991;52.028;5.526;2023-12-20T11:02:32;18.30;50.70
40289;DHT22;28991;52.028;5.526;2023-12-20T11:05:16;18.30;50.10
40289;DHT22;28991;52.028;5.526;2023-12-20T11:07:55;17.70;49.70
40289;DHT22;28991;52.028;5.526;2023-12-20T11:10:28;18.30;50.50
40289;DHT22;28991;52.028;5.526;2023-12-20T11:16:08;18.60;50.10
40289;DHT22;28991;52.028;5.526;2023-12-20T11:18:34;18.60;50.70
40289;DHT22;28991;52.028;5.526;2023-12-20T11:21:04;18.40;50.70
40289;DHT22;28991;52.028;5.526;2023-12-20T11:23:32;18.40;50.60
40289;DHT22;28991;52.028;5.526;2023-12-20T11:25:59;18.50;50.60
40289;DHT22;28991;52.028;5.526;2023-12-20T11:28:27;18.60;50.70
40289;DHT22;28991;52.028;5.526;2023-12-20T11:30:54;18.50;50.50
40289;DHT22;28991;52.028;5.526;2023-12-20T11:33:24;18.50;50.80
40289;DHT22;28991;52.028;5.526;2023-12-20T11:35:50;18.80;50.60
40289;DHT22;28991;52.028;5.526;2023-12-20T11:38:16;18.80;50.50
40289;DHT22;28991;52.028;5.526;2023-12-20T11:40:43;18.80;50.50
40289;DHT22;28991;52.028;5.526;2023-12-20T11:43:09;18.70;50.40
40289;DHT22;28991;52.028;5.526;2023-12-20T11:45:35;18.70;50.40
40289;DHT22;28991;52.028;5.526;2023-12-20T11:48:01;18.70;50.30
40289;DHT22;28991;52.028;5.526;2023-12-20T11:50:28;18.80;50.30
40289;DHT22;28991;52.028;5.526;2023-12-20T11:52:55;18.80;50.20
40289;DHT22;28991;52.028;5.526;2023-12-20T11:55:24;18.90;50.20
40289;DHT22;28991;52.028;5.526;2023-12-20T11:57:50;18.80;50.10
40289;DHT22;28991;52.028;5.526;2023-12-20T12:00:16;18.90;50.20
40289;DHT22;28991;52.028;5.526;2023-12-20T12:02:43;18.80;49.50
40289;DHT22;28991;52.028;5.526;2023-12-20T12:05:08;18.20;49.70
40289;DHT22;28991;52.028;5.526;2023-12-20T12:07:35;18.70;50.00
40289;DHT22;28991;52.028;5.526;2023-12-20T12:10:01;18.50;49.70
40289;DHT22;28991;52.028;5.526;2023-12-20T12:12:26;18.70;49.80
40289;DHT22;28991;52.028;5.526;2023-12-20T12:14:54;18.70;49.70
40289;DHT22;28991;52.028;5.526;2023-12-20T12:17:19;18.60;49.70
40289;DHT22;28991;52.028;5.526;2023-12-20T12:19:45;18.80;49.90
40289;DHT22;28991;52.028;5.526;2023-12-20T12:22:14;18.70;49.80
40289;DHT22;28991;52.028;5.526;2023-12-20T12:24:44;18.60;49.60
40289;DHT22;28991;52.028;5.526;2023-12-20T12:27:10;18.40;49.60
40289;DHT22;28991;52.028;5.526;2023-12-20T12:29:37;18.70;49.80
40289;DHT22;28991;52.028;5.526;2023-12-20T12:32:09;18.40;49.70
40289;DHT22;28991;52.028;5.526;2023-12-20T12:34:35;18.40;49.50
40289;DHT22;28991;52.028;5.526;2023-12-20T12:37:03;18.40;50.10
40289;DHT22;28991;52.028;5.526;2023-12-20T12:39:29;18.20;49.10
40289;DHT22;28991;52.028;5.526;2023-12-20T12:41:55;18.20;50.10
40289;DHT22;28991;52.028;5.526;2023-12-20T12:44:21;18.30;49.70
40289;DHT22;28991;52.028;5.526;2023-12-20T12:46:49;18.30;49.10
40289;DHT22;28991;52.028;5.526;2023-12-20T12:49:19;18.20;49.10
40289;DHT22;28991;52.028;5.526;2023-12-20T12:51:45;18.20;49.50
40289;DHT22;28991;52.028;5.526;2023-12-20T12:54:11;18.20;49.00
40289;DHT22;28991;52.028;5.526;2023-12-20T12:56:38;18.10;49.50
40289;DHT22;28991;52.028;5.526;2023-12-20T12:59:04;18.10;49.40
40289;DHT22;28991;52.028;5.526;2023-12-20T13:01:31;18.10;49.40
40289;DHT22;28991;52.028;5.526;2023-12-20T13:03:56;20.70;50.80
40289;DHT22;28991;52.028;5.526;2023-12-20T13:06:22;18.10;48.90
40289;DHT22;28991;52.028;5.526;2023-12-20T13:08:48;18.10;49.40
40289;DHT22;28991;52.028;5.526;2023-12-20T13:11:13;18.10;48.90
40289;DHT22;28991;52.028;5.526;2023-12-20T13:13:39;18.00;48.90
40289;DHT22;28991;52.028;5.526;2023-12-20T13:16:05;18.10;48.90
40289;DHT22;28991;52.028;5.526;2023-12-20T13:18:30;16.10;48.00
40289;DHT22;28991;52.028;5.526;2023-12-20T13:20:56;18.20;49.50
40289;DHT22;28991;52.028;5.526;2023-12-20T13:23:21;18.00;48.90
40289;DHT22;28991;52.028;5.526;2023-12-20T13:25:47;18.00;49.00
40289;DHT22;28991;52.028;5.526;2023-12-20T13:28:13;18.00;49.00
40289;DHT22;28991;52.028;5.526;2023-12-20T13:30:39;18.00;49.50
40289;DHT22;28991;52.028;5.526;2023-12-20T13:33:05;18.00;49.60
40289;DHT22;28991;52.028;5.526;2023-12-20T13:35:31;18.00;49.50
40289;DHT22;28991;52.028;5.526;2023-12-20T13:37:57;18.00;49.00
40289;DHT22;28991;52.028;5.526;2023-12-20T13:40:23;18.00;49.10
40289;DHT22;28991;52.028;5.526;2023-12-20T13:42:49;18.00;50.10
40289;DHT22;28991;52.028;5.526;2023-12-20T13:45:14;18.00;49.60
40289;DHT22;28991;52.028;5.526;2023-12-20T13:47:40;18.00;49.10
40289;DHT22;28991;52.028;5.526;2023-12-20T13:50:06;18.00;49.60
40289;DHT22;28991;52.028;5.526;2023-12-20T13:52:31;17.90;49.50
40289;DHT22;28991;52.028;5.526;2023-12-20T13:54:57;18.00;49.00
40289;DHT22;28991;52.028;5.526;2023-12-20T13:57:23;17.90;49.00
40289;DHT22;28991;52.028;5.526;2023-12-20T13:59:48;17.80;49.00
40289;DHT22;28991;52.028;5.526;2023-12-20T14:02:14;17.90;49.50
40289;DHT22;28991;52.028;5.526;2023-12-20T14:04:40;17.90;49.50
40289;DHT22;28991;52.028;5.526;2023-12-20T14:07:06;17.90;49.00
40289;DHT22;28991;52.028;5.526;2023-12-20T14:09:33;19.30;50.20
40289;DHT22;28991;52.028;5.526;2023-12-20T14:11:58;17.90;49.00
40289;DHT22;28991;52.028;5.526;2023-12-20T14:14:24;17.90;49.50
40289;DHT22;28991;52.028;5.526;2023-12-20T14:16:49;17.70;48.80
40289;DHT22;28991;52.028;5.526;2023-12-20T14:19:15;18.10;49.50
40289;DHT22;28991;52.028;5.526;2023-12-20T14:21:41;17.90;49.40
40289;DHT22;28991;52.028;5.526;2023-12-20T14:24:06;18.00;48.90
40289;DHT22;28991;52.028;5.526;2023-12-20T14:26:32;17.90;48.80
40289;DHT22;28991;52.028;5.526;2023-12-20T14:28:57;17.90;48.80
40289;DHT22;28991;52.028;5.526;2023-12-20T14:31:23;18.30;49.50
40289;DHT22;28991;52.028;5.526;2023-12-20T14:33:50;17.70;49.10
40289;DHT22;28991;52.028;5.526;2023-12-20T14:36:16;17.90;49.20
40289;DHT22;28991;52.028;5.526;2023-12-20T14:38:43;17.90;49.20
40289;DHT22;28991;52.028;5.526;2023-12-20T14:41:09;18.20;49.40
40289;DHT22;28991;52.028;5.526;2023-12-20T14:43:35;18.00;48.80
40289;DHT22;28991;52.028;5.526;2023-12-20T14:46:00;17.90;49.20
40289;DHT22;28991;52.028;5.526;2023-12-20T14:48:26;17.80;48.60
40289;DHT22;28991;52.028;5.526;2023-12-20T14:50:53;17.90;48.70
40289;DHT22;28991;52.028;5.526;2023-12-20T14:53:20;18.20;49.30
40289;DHT22;28991;52.028;5.526;2023-12-20T14:55:45;17.90;48.70
40289;DHT22;28991;52.028;5.526;2023-12-20T14:58:12;17.80;48.60
40289;DHT22;28991;52.028;5.526;2023-12-20T15:00:38;17.90;49.20
40289;DHT22;28991;52.028;5.526;2023-12-20T15:03:03;17.90;49.20
40289;DHT22;28991;52.028;5.526;2023-12-20T15:05:30;17.80;49.20
40289;DHT22;28991;52.028;5.526;2023-12-20T15:07:56;17.60;49.10
40289;DHT22;28991;52.028;5.526;2023-12-20T15:10:21;18.30;49.70
40289;DHT22;28991;52.028;5.526;2023-12-20T15:12:47;17.90;49.70
40289;DHT22;28991;52.028;5.526;2023-12-20T15:15:13;17.90;49.70
40289;DHT22;28991;52.028;5.526;2023-12-20T15:17:39;17.90;49.70
40289;DHT22;28991;52.028;5.526;2023-12-20T15:20:05;17.90;49.70
40289;DHT22;28991;52.028;5.526;2023-12-20T15:22:30;17.90;49.60
40289;DHT22;28991;52.028;5.526;2023-12-20T15:24:59;17.80;49.60
40289;DHT22;28991;52.028;5.526;2023-12-20T15:27:25;17.90;49.60
40289;DHT22;28991;52.028;5.526;2023-12-20T15:29:50;18.10;49.80
40289;DHT22;28991;52.028;5.526;2023-12-20T15:32:17;17.90;49.70